Time;durP1;ratioP1;P1;durP2;ratioP2;P2;SDS_P1;SDS_P2;PMS_P1;PMS_P2;Temp;Humidity;BMP_temperature;BMP_pressure;BME280_temperature;BME280_humidity;BME280_pressure;Samples;Min_cycle;Max_cycle;Signal;HPM_P1;HPM_P2
2023/11/28 00:01:33;;;;;;;12.77;11.93;;;0.50;89.90;;;;;;5077949;28;20170;-91
2023/11/28 00:03:58;;;;;;;13.87;12.57;;;0.60;90.00;;;;;;5078195;28;20203;-92
2023/11/28 00:06:24;;;;;;;11.03;10.20;;;0.50;90.00;;;;;;5078269;28;20201;-91
2023/11/28 00:08:49;;;;;;;9.33;6.07;;;0.50;90.10;;;;;;5077986;28;20194;-91
2023/11/28 00:11:22;;;;;;;8.07;5.80;;;0.50;90.30;;;;;;5077939;28;20274;-92
2023/11/28 00:13:49;;;;;;;13.87;12.87;;;0.50;90.40;;;;;;5077911;28;20205;-91
2023/11/28 00:16:15;;;;;;;13.33;12.43;;;0.50;90.60;;;;;;5077555;28;20176;-93
2023/11/28 00:18:41;;;;;;;6.70;6.20;;;0.50;90.80;;;;;;5077557;28;20263;-91
2023/11/28 00:21:07;;;;;;;5.37;4.80;;;0.50;91.10;;;;;;5077771;28;20180;-91
2023/11/28 00:23:32;;;;;;;6.13;5.63;;;0.50;91.20;;;;;;5077583;28;20556;-90
2023/11/28 00:25:58;;;;;;;5.87;5.37;;;0.50;91.30;;;;;;5077531;28;20744;-91
2023/11/28 00:28:26;;;;;;;4.97;4.57;;;0.60;91.50;;;;;;5077406;28;20251;-91
2023/11/28 00:30:52;;;;;;;7.53;5.63;;;0.60;91.60;;;;;;5077322;28;20187;-91
2023/11/28 00:33:18;;;;;;;7.53;5.70;;;0.60;91.60;;;;;;5077462;28;20297;-90
2023/11/28 00:35:44;;;;;;;6.30;5.80;;;0.60;91.70;;;;;;5077219;28;20213;-91
2023/11/28 00:38:09;;;;;;;5.30;4.90;;;0.60;91.70;;;;;;5077296;28;20671;-91
2023/11/28 00:40:35;;;;;;;5.60;5.10;;;0.70;91.80;;;;;;5077211;28;20220;-91
2023/11/28 00:43:01;;;;;;;6.70;5.43;;;0.70;91.90;;;;;;5095502;28;20625;-92
2023/11/28 00:45:26;;;;;;;10.97;10.17;;;0.80;91.90;;;;;;5077391;28;20182;-91
2023/11/28 00:47:53;;;;;;;10.93;10.13;;;0.80;91.90;;;;;;5076988;28;20194;-92
2023/11/28 00:50:18;;;;;;;12.10;11.23;;;0.80;91.90;;;;;;5076980;28;20197;-91
2023/11/28 00:52:45;;;;;;;11.53;10.63;;;0.90;91.90;;;;;;5076805;28;20208;-92
2023/11/28 00:55:11;;;;;;;11.57;10.77;;;0.90;91.90;;;;;;5076931;28;20588;-91
2023/11/28 00:57:36;;;;;;;11.63;10.67;;;1.00;92.00;;;;;;5076832;28;20189;-91
2023/11/28 01:00:08;;;;;;;13.13;12.13;;;0.90;92.00;;;;;;5077878;28;20262;-91
2023/11/28 01:02:34;;;;;;;11.07;10.17;;;1.00;92.00;;;;;;5076856;28;20599;-91
2023/11/28 01:04:59;;;;;;;8.10;5.97;;;1.00;91.80;;;;;;5076766;28;20206;-91
2023/11/28 01:07:28;;;;;;;6.83;6.23;;;1.00;91.80;;;;;;5076739;28;20202;-91
2023/11/28 01:10:18;;;;;;;12.43;11.37;;;1.00;91.70;;;;;;5077070;28;20620;-91
2023/11/28 01:12:44;;;;;;;12.43;11.47;;;1.00;91.70;;;;;;5076532;28;20202;-91
2023/11/28 01:15:10;;;;;;;6.00;5.53;;;1.00;91.60;;;;;;5078263;28;20190;-89
2023/11/28 01:17:36;;;;;;;5.93;5.43;;;1.00;91.70;;;;;;5076392;28;20283;-90
2023/11/28 01:20:02;;;;;;;11.27;10.43;;;1.00;91.70;;;;;;5078239;28;20216;-92
2023/11/28 01:22:28;;;;;;;11.63;10.73;;;1.00;92.00;;;;;;5077427;28;20243;-89
2023/11/28 01:24:53;;;;;;;10.90;10.00;;;1.00;92.20;;;;;;5077468;28;20174;-91
2023/11/28 01:27:19;;;;;;;7.13;6.43;;;1.00;92.30;;;;;;5075348;28;20202;-90
2023/11/28 01:29:45;;;;;;;7.87;7.17;;;1.00;92.40;;;;;;5076069;28;20546;-90
2023/11/28 01:32:10;;;;;;;12.50;11.50;;;0.90;92.50;;;;;;5076110;28;20648;-91
2023/11/28 01:34:36;;;;;;;12.40;11.33;;;1.00;92.50;;;;;;5076076;28;20255;-91
2023/11/28 01:37:02;;;;;;;13.03;12.03;;;1.00;92.40;;;;;;5076007;28;20184;-91
2023/11/28 01:39:28;;;;;;;8.87;6.13;;;1.00;92.40;;;;;;5076874;28;20278;-90
2023/11/28 01:41:53;;;;;;;7.70;6.90;;;1.00;92.40;;;;;;5094044;28;20250;-90
2023/11/28 01:44:19;;;;;;;8.73;7.83;;;1.00;92.30;;;;;;5075987;28;20215;-91
2023/11/28 01:46:44;;;;;;;13.07;11.67;;;1.00;92.30;;;;;;5075866;28;20185;-90
2023/11/28 01:49:11;;;;;;;14.00;12.77;;;1.00;92.30;;;;;;5076068;28;20217;-91
2023/11/28 01:51:37;;;;;;;7.73;7.07;;;1.00;92.20;;;;;;5075839;28;20185;-91
2023/11/28 01:54:05;;;;;;;7.53;6.90;;;1.00;92.00;;;;;;5075639;28;20213;-91
2023/11/28 01:56:32;;;;;;;11.33;7.63;;;1.00;91.70;;;;;;5075613;28;20172;-91
2023/11/28 01:58:59;;;;;;;12.50;11.60;;;1.10;91.40;;;;;;5076177;28;20198;-91
2023/11/28 02:01:25;;;;;;;14.40;13.23;;;1.10;91.10;;;;;;5075619;28;20170;-91
2023/11/28 02:03:51;;;;;;;9.37;6.43;;;1.10;90.70;;;;;;5075561;28;20242;-91
2023/11/28 02:06:20;;;;;;;7.80;6.60;;;1.10;90.70;;;;;;5075801;28;20201;-91
2023/11/28 02:08:46;;;;;;;10.40;7.00;;;1.10;90.60;;;;;;5075443;28;20207;-91
2023/11/28 02:11:12;;;;;;;13.43;12.53;;;1.10;90.60;;;;;;5075451;28;20179;-91
2023/11/28 02:13:37;;;;;;;14.30;13.40;;;1.20;90.30;;;;;;5080641;28;20306;-91
2023/11/28 02:16:13;;;;;;;8.33;7.33;;;1.10;90.20;;;;;;5075375;28;20657;-91
2023/11/28 02:18:39;;;;;;;6.70;6.10;;;1.20;89.90;;;;;;5075218;28;20194;-91
2023/11/28 02:21:06;;;;;;;9.80;8.90;;;1.20;89.90;;;;;;5075391;28;20170;-90
2023/11/28 02:23:32;;;;;;;12.87;11.87;;;1.20;89.80;;;;;;5075121;28;20293;-90
2023/11/28 02:26:03;;;;;;;15.50;14.40;;;1.20;89.90;;;;;;5075381;28;20217;-90
2023/11/28 02:28:28;;;;;;;11.57;7.43;;;1.20;89.90;;;;;;5075188;28;20196;-91
2023/11/28 02:30:59;;;;;;;6.70;6.20;;;1.20;89.70;;;;;;5075203;28;20188;-92
2023/11/28 02:33:25;;;;;;;8.97;6.77;;;1.20;89.30;;;;;;5075046;28;20231;-91
2023/11/28 02:35:51;;;;;;;9.60;6.43;;;1.20;89.20;;;;;;5075433;28;20277;-91
2023/11/28 02:38:17;;;;;;;7.33;6.63;;;1.30;89.40;;;;;;5075031;28;20261;-90
2023/11/28 02:40:42;;;;;;;7.77;6.97;;;1.20;89.60;;;;;;5075314;28;20167;-91
2023/11/28 02:43:09;;;;;;;8.23;6.13;;;1.20;89.70;;;;;;5075122;28;20178;-91
2023/11/28 02:45:35;;;;;;;9.20;6.40;;;1.20;89.70;;;;;;5075176;28;20175;-91
2023/11/28 02:48:00;;;;;;;7.80;7.10;;;1.20;89.50;;;;;;5075181;28;20201;-90
2023/11/28 02:50:26;;;;;;;7.17;6.50;;;1.20;89.50;;;;;;5074897;28;20197;-91
2023/11/28 02:52:51;;;;;;;7.20;6.50;;;1.20;89.80;;;;;;5075710;28;20202;-91
2023/11/28 02:55:17;;;;;;;12.23;11.23;;;1.10;89.90;;;;;;5075013;28;20178;-91
2023/11/28 02:57:44;;;;;;;13.83;12.93;;;1.10;90.00;;;;;;5074888;28;20240;-90
2023/11/28 03:00:10;;;;;;;12.57;11.57;;;1.10;90.10;;;;;;5074995;28;20181;-90
2023/11/28 03:02:36;;;;;;;12.33;11.53;;;1.10;90.30;;;;;;5074901;28;20175;-91
2023/11/28 03:05:02;;;;;;;12.97;11.67;;;1.10;90.40;;;;;;5074860;28;20227;-91
2023/11/28 03:07:28;;;;;;;13.87;12.67;;;1.10;90.60;;;;;;5074768;28;20194;-91
2023/11/28 03:09:54;;;;;;;13.80;12.20;;;1.10;90.60;;;;;;5074944;28;20337;-91
2023/11/28 03:12:19;;;;;;;12.37;11.30;;;1.10;90.70;;;;;;5074826;28;20178;-91
2023/11/28 03:14:45;;;;;;;11.93;10.93;;;1.10;90.60;;;;;;5074887;28;20210;-91
2023/11/28 03:17:11;;;;;;;12.07;11.13;;;1.10;90.50;;;;;;5074773;28;20688;-90
2023/11/28 03:19:36;;;;;;;7.00;6.40;;;1.10;90.70;;;;;;5075640;28;20630;-91
2023/11/28 03:22:02;;;;;;;6.37;5.77;;;1.10;90.90;;;;;;5074897;28;20175;-91
2023/11/28 03:24:28;;;;;;;12.33;11.33;;;1.10;91.10;;;;;;5075074;28;20187;-91
2023/11/28 03:26:54;;;;;;;11.53;10.60;;;1.10;91.20;;;;;;5075066;28;20174;-91
2023/11/28 03:29:20;;;;;;;6.67;6.07;;;1.00;91.40;;;;;;5074697;28;20231;-90
2023/11/28 03:31:46;;;;;;;7.17;5.80;;;1.00;91.50;;;;;;5074733;28;20186;-91
2023/11/28 03:34:11;;;;;;;10.83;9.93;;;1.00;91.70;;;;;;5092874;28;20197;-91
2023/11/28 03:36:37;;;;;;;12.83;11.57;;;1.00;91.70;;;;;;5074648;28;20636;-91
2023/11/28 03:39:02;;;;;;;11.30;9.70;;;1.00;91.80;;;;;;5074404;28;20258;-91
2023/11/28 03:41:28;;;;;;;7.60;7.00;;;1.00;92.00;;;;;;5074643;28;20174;-91
2023/11/28 03:43:53;;;;;;;7.67;6.93;;;0.90;92.20;;;;;;5074587;28;20273;-91
2023/11/28 03:46:19;;;;;;;11.07;10.27;;;0.80;92.40;;;;;;5074595;28;20227;-90
2023/11/28 03:48:44;;;;;;;12.43;11.27;;;0.80;92.60;;;;;;5074836;28;20224;-91
2023/11/28 03:51:10;;;;;;;12.37;11.23;;;0.70;92.80;;;;;;5075836;28;20649;-91
2023/11/28 03:53:36;;;;;;;8.63;6.90;;;0.70;92.90;;;;;;5078348;28;20206;-91
2023/11/28 03:56:06;;;;;;;7.43;6.70;;;0.70;93.00;;;;;;5078282;28;20176;-91
2023/11/28 03:58:31;;;;;;;9.87;8.67;;;0.70;93.00;;;;;;5077879;28;20205;-91
2023/11/28 04:00:57;;;;;;;8.97;8.30;;;0.60;92.80;;;;;;5078819;28;20182;-91
2023/11/28 04:03:23;;;;;;;12.33;11.43;;;0.60;92.30;;;;;;5077880;28;20184;-91
2023/11/28 04:05:49;;;;;;;7.53;5.40;;;0.70;91.80;;;;;;5077963;28;20192;-91
2023/11/28 04:08:15;;;;;;;6.57;5.97;;;0.70;91.10;;;;;;5077861;28;20247;-91
2023/11/28 04:10:41;;;;;;;9.23;6.70;;;0.80;90.70;;;;;;5077604;28;20175;-91
2023/11/28 04:13:06;;;;;;;11.93;11.13;;;0.70;90.50;;;;;;5077716;28;20240;-90
2023/11/28 04:15:33;;;;;;;13.13;12.10;;;0.70;90.60;;;;;;5077831;28;20244;-90
2023/11/28 04:17:59;;;;;;;9.50;6.83;;;0.70;90.40;;;;;;5078310;28;20213;-91
2023/11/28 04:20:24;;;;;;;7.13;6.40;;;0.70;90.20;;;;;;5077600;28;20633;-91
2023/11/28 04:22:50;;;;;;;7.70;7.10;;;0.70;89.90;;;;;;5078661;28;20189;-90
2023/11/28 04:25:16;;;;;;;14.73;13.50;;;0.70;89.80;;;;;;5077471;28;20190;-91
2023/11/28 04:27:41;;;;;;;15.27;13.97;;;0.70;89.10;;;;;;5077960;28;20618;-91
2023/11/28 04:30:07;;;;;;;7.63;7.03;;;0.70;89.20;;;;;;5077535;28;20186;-92
2023/11/28 04:32:33;;;;;;;7.13;6.57;;;0.70;89.20;;;;;;5077483;28;20187;-91
2023/11/28 04:34:58;;;;;;;10.87;6.30;;;0.70;89.40;;;;;;5077237;28;20178;-90
2023/11/28 04:37:24;;;;;;;13.17;12.17;;;0.70;89.10;;;;;;5077525;28;20196;-91
2023/11/28 04:39:50;;;;;;;14.10;13.20;;;0.70;89.30;;;;;;5077197;28;20173;-91
2023/11/28 04:42:15;;;;;;;9.57;6.53;;;0.70;89.60;;;;;;5077331;28;20219;-92
2023/11/28 04:44:41;;;;;;;7.27;6.50;;;0.70;89.70;;;;;;5077090;28;20594;-90
2023/11/28 04:47:07;;;;;;;8.30;7.33;;;0.70;89.70;;;;;;5076993;28;20675;-91
2023/11/28 04:49:32;;;;;;;7.17;6.37;;;0.70;89.40;;;;;;5077043;28;20193;-91
2023/11/28 04:51:58;;;;;;;7.47;6.80;;;0.60;88.90;;;;;;5077437;28;20182;-91
2023/11/28 04:54:23;;;;;;;8.23;7.03;;;0.60;88.30;;;;;;5076729;28;20554;-91
2023/11/28 04:56:49;;;;;;;7.50;7.00;;;0.60;88.10;;;;;;5077031;28;20269;-91
2023/11/28 04:59:14;;;;;;;8.33;7.47;;;0.60;88.00;;;;;;5076838;28;20241;-92
2023/11/28 05:01:47;;;;;;;6.87;6.30;;;0.60;87.70;;;;;;5076636;28;20211;-92
2023/11/28 05:04:13;;;;;;;7.30;6.60;;;0.60;87.60;;;;;;5076224;28;20184;-92
2023/11/28 05:06:38;;;;;;;7.53;6.90;;;0.60;87.50;;;;;;5077183;28;20187;-92
2023/11/28 05:09:05;;;;;;;12.93;11.60;;;0.60;87.80;;;;;;5076829;28;20193;-92
2023/11/28 05:11:31;;;;;;;12.07;11.20;;;0.50;87.80;;;;;;5076761;28;20264;-90
2023/11/28 05:13:58;;;;;;;12.73;11.83;;;0.50;87.80;;;;;;5076369;28;20281;-91
2023/11/28 05:16:23;;;;;;;12.70;11.70;;;0.60;88.20;;;;;;5076835;28;20608;-91
2023/11/28 05:18:49;;;;;;;13.03;12.13;;;0.60;88.70;;;;;;5076341;28;20193;-91
2023/11/28 05:21:15;;;;;;;13.83;12.93;;;0.50;89.00;;;;;;5076413;28;20178;-90
2023/11/28 05:23:40;;;;;;;12.73;11.93;;;0.50;88.90;;;;;;5076271;28;20181;-91
2023/11/28 05:26:06;;;;;;;13.23;12.30;;;0.50;88.60;;;;;;5076398;28;20620;-92
2023/11/28 05:28:32;;;;;;;14.57;13.47;;;0.50;88.00;;;;;;5076115;28;20761;-90
2023/11/28 05:30:57;;;;;;;7.47;6.87;;;0.40;88.20;;;;;;5076265;28;20185;-91
2023/11/28 05:33:23;;;;;;;8.03;7.37;;;0.40;88.30;;;;;;5076133;28;20212;-91
2023/11/28 05:35:49;;;;;;;13.17;12.17;;;0.40;88.10;;;;;;5076238;28;20201;-91
2023/11/28 05:38:14;;;;;;;15.73;14.73;;;0.40;88.30;;;;;;5076059;28;20201;-92
2023/11/28 05:40:40;;;;;;;7.77;7.17;;;0.30;88.10;;;;;;5076081;28;20185;-92
2023/11/28 05:43:06;;;;;;;7.67;7.07;;;0.40;88.10;;;;;;5076192;28;20551;-92
2023/11/28 05:45:31;;;;;;;15.60;14.43;;;0.30;88.20;;;;;;5076220;28;20230;-91
2023/11/28 05:47:57;;;;;;;16.00;14.60;;;0.30;88.50;;;;;;5075874;28;20205;-91
2023/11/28 05:50:25;;;;;;;15.67;14.37;;;0.30;88.10;;;;;;5076333;28;20676;-93
2023/11/28 05:52:53;;;;;;;8.57;7.87;;;0.30;88.50;;;;;;5094409;28;20199;-92
2023/11/28 05:55:20;;;;;;;8.00;7.27;;;0.30;88.80;;;;;;5075848;28;20173;-91
2023/11/28 05:57:46;;;;;;;15.43;14.43;;;0.30;88.80;;;;;;5075684;28;20197;-91
2023/11/28 06:00:13;;;;;;;13.80;12.90;;;0.30;88.80;;;;;;5076042;28;20180;-91
2023/11/28 06:02:39;;;;;;;11.47;10.37;;;0.30;89.00;;;;;;5075584;28;20207;-92
2023/11/28 06:05:05;;;;;;;10.23;7.47;;;0.30;88.90;;;;;;5075483;28;20642;-92
2023/11/28 06:07:31;;;;;;;9.00;8.20;;;0.30;88.60;;;;;;5075841;28;20191;-91
2023/11/28 06:09:57;;;;;;;15.00;13.97;;;0.30;88.70;;;;;;5075944;28;20701;-92
2023/11/28 06:12:23;;;;;;;15.20;14.10;;;0.30;88.60;;;;;;5075766;28;20614;-92
2023/11/28 06:14:49;;;;;;;16.73;15.13;;;0.30;88.70;;;;;;5075103;28;20210;-92
2023/11/28 06:17:14;;;;;;;7.30;6.80;;;0.30;88.60;;;;;;5075419;28;20204;-92
2023/11/28 06:19:40;;;;;;;10.63;7.90;;;0.20;88.20;;;;;;5093768;28;20176;-92
2023/11/28 06:22:05;;;;;;;10.97;10.17;;;0.20;88.30;;;;;;5075380;28;20265;-91
2023/11/28 06:24:31;;;;;;;19.27;17.63;;;0.20;88.20;;;;;;5075441;28;20639;-92
2023/11/28 06:26:56;;;;;;;18.20;17.03;;;0.20;88.40;;;;;;5075614;28;20724;-91
2023/11/28 06:29:22;;;;;;;9.23;8.27;;;0.10;88.50;;;;;;5075393;28;20668;-92
2023/11/28 06:31:48;;;;;;;8.20;7.50;;;0.10;88.50;;;;;;5075682;28;20191;-90
2023/11/28 06:34:14;;;;;;;8.13;7.50;;;0.10;88.50;;;;;;5075335;28;20284;-92
2023/11/28 06:36:39;;;;;;;19.43;17.93;;;0.10;88.20;;;;;;5075288;28;20713;-92
2023/11/28 06:39:05;;;;;;;18.87;17.60;;;0.10;88.30;;;;;;5075198;28;20186;-91
2023/11/28 06:41:30;;;;;;;8.33;7.63;;;0.10;88.40;;;;;;5075626;28;20174;-91
2023/11/28 06:43:56;;;;;;;7.83;7.20;;;0.10;88.60;;;;;;5075269;28;20200;-92
2023/11/28 06:46:21;;;;;;;8.50;7.80;;;0.10;88.50;;;;;;5075048;28;20175;-92
2023/11/28 06:48:48;;;;;;;18.97;17.60;;;0.00;88.30;;;;;;5074989;28;20208;-91
2023/11/28 06:51:14;;;;;;;19.17;17.63;;;0.10;88.50;;;;;;5075153;28;20170;-92
2023/11/28 06:53:39;;;;;;;8.47;7.57;;;0.10;88.40;;;;;;5075313;28;20212;-92
2023/11/28 06:56:05;;;;;;;8.97;8.03;;;0.10;88.40;;;;;;5074900;28;20230;-92
2023/11/28 06:58:31;;;;;;;8.67;7.90;;;0.00;88.40;;;;;;5074885;28;20192;-91
2023/11/28 07:00:56;;;;;;;18.53;17.33;;;0.00;88.50;;;;;;5075454;28;20661;-92
2023/11/28 07:03:22;;;;;;;19.50;18.13;;;0.00;88.50;;;;;;5075063;28;20177;-92
2023/11/28 07:05:48;;;;;;;10.50;8.67;;;0.00;88.20;;;;;;5074912;28;20558;-92
2023/11/28 07:08:14;;;;;;;9.40;8.57;;;0.00;88.30;;;;;;5075619;28;20199;-92
2023/11/28 07:10:40;;;;;;;9.77;8.77;;;0.00;88.40;;;;;;5074843;28;20175;-92
2023/11/28 07:13:05;;;;;;;10.13;9.20;;;0.00;88.00;;;;;;5075593;28;20203;-90
2023/11/28 07:15:31;;;;;;;8.80;7.90;;;0.00;88.10;;;;;;5074915;28;20291;-90
2023/11/28 07:18:00;;;;;;;8.83;8.07;;;0.00;88.10;;;;;;5074622;28;20199;-92
2023/11/28 07:20:25;;;;;;;9.10;8.40;;;0.00;87.60;;;;;;5076930;28;20168;-91
2023/11/28 07:22:51;;;;;;;9.80;9.00;;;0.00;87.40;;;;;;5074908;28;20176;-91
2023/11/28 07:25:17;;;;;;;10.70;9.60;;;0.00;87.30;;;;;;5074640;28;20545;-90
2023/11/28 07:27:43;;;;;;;9.73;8.70;;;0.00;87.40;;;;;;5078573;28;20210;-90
2023/11/28 07:30:09;;;;;;;8.63;8.03;;;0.00;87.30;;;;;;5078608;28;20224;-90
2023/11/28 07:32:34;;;;;;;18.80;17.53;;;0.00;87.20;;;;;;5078542;28;20726;-90
2023/11/28 07:35:00;;;;;;;19.27;17.73;;;0.00;87.50;;;;;;5078437;28;20233;-91
2023/11/28 07:37:25;;;;;;;20.20;18.80;;;0.00;87.40;;;;;;5096445;28;20556;-90
2023/11/28 07:39:51;;;;;;;19.77;18.17;;;0.00;87.40;;;;;;5078178;28;20177;-90
2023/11/28 07:42:17;;;;;;;19.90;18.40;;;0.00;87.60;;;;;;5078272;28;20178;-90
2023/11/28 07:44:42;;;;;;;21.03;19.63;;;0.00;87.70;;;;;;5078206;28;20682;-91
2023/11/28 07:47:08;;;;;;;19.03;17.73;;;0.00;87.40;;;;;;5078434;28;20201;-91
2023/11/28 07:49:34;;;;;;;14.47;12.07;;;0.00;87.50;;;;;;5078165;28;20249;-90
2023/11/28 07:51:59;;;;;;;9.60;8.70;;;0.00;87.20;;;;;;5078192;28;20174;-91
2023/11/28 07:54:25;;;;;;;11.20;10.23;;;0.00;87.30;;;;;;5078536;28;20688;-90
2023/11/28 07:56:51;;;;;;;20.00;18.50;;;-0.10;87.30;;;;;;5078325;28;20675;-90
2023/11/28 07:59:16;;;;;;;21.63;20.13;;;0.00;87.30;;;;;;5077974;28;20265;-91
2023/11/28 08:01:42;;;;;;;10.27;9.23;;;0.00;87.40;;;;;;5077968;28;20272;-91
2023/11/28 08:04:07;;;;;;;10.00;9.20;;;0.00;87.60;;;;;;5077829;28;20211;-91
2023/11/28 08:06:34;;;;;;;19.03;17.53;;;0.00;87.70;;;;;;5077945;28;20663;-90
2023/11/28 08:08:59;;;;;;;19.67;18.13;;;0.00;87.70;;;;;;5095918;28;20570;-90
2023/11/28 08:11:25;;;;;;;18.77;17.00;;;0.00;87.80;;;;;;5078116;28;20173;-91
2023/11/28 08:13:51;;;;;;;10.50;9.50;;;0.00;87.90;;;;;;5077679;28;20575;-90
2023/11/28 08:16:18;;;;;;;9.37;8.67;;;0.00;87.80;;;;;;5077680;28;20268;-90
2023/11/28 08:18:43;;;;;;;15.50;14.30;;;0.00;87.90;;;;;;5077521;28;20200;-90
2023/11/28 08:21:09;;;;;;;18.20;16.90;;;0.00;88.00;;;;;;5077597;28;20177;-90
2023/11/28 08:23:34;;;;;;;17.40;15.80;;;0.10;88.10;;;;;;5077385;28;20553;-89
2023/11/28 08:26:00;;;;;;;17.47;15.97;;;0.00;87.90;;;;;;5078348;28;20186;-90
2023/11/28 08:28:26;;;;;;;11.03;10.13;;;0.10;88.00;;;;;;5095469;28;20698;-91
2023/11/28 08:30:51;;;;;;;10.93;9.93;;;0.00;87.80;;;;;;5095796;28;20172;-90
2023/11/28 08:33:18;;;;;;;17.03;15.63;;;0.00;87.90;;;;;;5077676;28;20206;-90
2023/11/28 08:35:44;;;;;;;19.27;17.97;;;0.00;87.90;;;;;;5077446;28;20727;-91
2023/11/28 08:38:09;;;;;;;18.63;17.17;;;0.00;87.90;;;;;;5095164;28;20233;-90
2023/11/28 08:40:35;;;;;;;11.50;10.40;;;0.10;88.00;;;;;;5077155;28;20267;-90
2023/11/28 08:43:00;;;;;;;10.33;9.43;;;0.10;88.20;;;;;;5077082;28;20182;-90
2023/11/28 08:45:26;;;;;;;19.80;18.00;;;0.10;88.50;;;;;;5077131;28;20181;-90
2023/11/28 08:47:52;;;;;;;20.00;18.60;;;0.10;88.60;;;;;;5077006;28;20211;-90
2023/11/28 08:50:18;;;;;;;19.03;17.57;;;0.00;88.60;;;;;;5077071;28;20205;-90
2023/11/28 08:52:43;;;;;;;11.67;10.50;;;0.10;88.70;;;;;;5077011;28;20186;-90
2023/11/28 08:55:09;;;;;;;10.43;9.53;;;0.00;88.70;;;;;;5095544;28;20203;-91
2023/11/28 08:57:34;;;;;;;19.87;18.40;;;0.00;88.30;;;;;;5077434;28;20721;-88
2023/11/28 09:00:01;;;;;;;18.87;17.47;;;0.00;87.90;;;;;;5098500;28;20163;-88
2023/11/28 09:02:27;;;;;;;19.90;18.33;;;0.00;87.90;;;;;;5078247;28;20179;-90
2023/11/28 09:04:52;;;;;;;9.70;8.73;;;0.00;88.10;;;;;;5076766;28;20180;-91
2023/11/28 09:07:18;;;;;;;10.93;9.87;;;0.00;87.80;;;;;;5077109;28;20279;-90
2023/11/28 09:09:43;;;;;;;16.33;15.13;;;0.00;87.40;;;;;;5076741;28;20176;-90
2023/11/28 09:12:09;;;;;;;16.40;15.20;;;0.00;87.30;;;;;;5076664;28;20183;-91
2023/11/28 09:14:35;;;;;;;17.50;16.23;;;0.00;87.30;;;;;;5076592;28;20298;-90
2023/11/28 09:17:00;;;;;;;11.93;10.23;;;0.00;87.20;;;;;;5076592;28;20182;-90
2023/11/28 09:19:29;;;;;;;10.93;9.87;;;0.00;86.70;;;;;;5076998;28;20170;-90
2023/11/28 09:21:54;;;;;;;15.73;14.43;;;0.00;87.00;;;;;;5078095;28;20171;-89
2023/11/28 09:24:20;;;;;;;16.30;15.13;;;0.00;86.60;;;;;;5077682;28;20177;-91
2023/11/28 09:26:46;;;;;;;17.00;15.53;;;0.00;86.70;;;;;;5078624;28;20600;-90
2023/11/28 09:29:12;;;;;;;11.70;10.63;;;0.00;86.70;;;;;;5076321;28;20289;-90
2023/11/28 09:31:38;;;;;;;12.27;11.20;;;0.00;86.90;;;;;;5076040;28;20179;-89
2023/11/28 09:34:04;;;;;;;11.67;10.67;;;0.00;86.30;;;;;;5076104;28;20570;-90
2023/11/28 09:36:30;;;;;;;17.63;16.30;;;0.00;86.00;;;;;;5076393;28;20173;-91
2023/11/28 09:38:58;;;;;;;18.90;17.63;;;0.00;86.20;;;;;;5076369;28;20193;-90
2023/11/28 09:41:25;;;;;;;11.37;10.20;;;0.00;85.90;;;;;;5094176;28;20639;-91
2023/11/28 09:43:52;;;;;;;11.97;11.07;;;0.00;85.80;;;;;;5075925;28;20178;-90
2023/11/28 09:46:21;;;;;;;12.00;11.20;;;0.00;85.10;;;;;;5075830;28;20213;-90
2023/11/28 09:48:50;;;;;;;22.43;21.03;;;0.00;84.70;;;;;;5075198;28;20202;-91
2023/11/28 09:51:18;;;;;;;23.13;21.40;;;0.00;83.80;;;;;;5076147;28;20175;-91
2023/11/28 09:53:51;;;;;;;15.03;11.57;;;0.00;83.50;;;;;;5075892;28;20577;-91
2023/11/28 09:56:26;;;;;;;13.27;12.17;;;0.00;84.20;;;;;;5075679;28;20167;-91
2023/11/28 09:58:56;;;;;;;12.57;11.57;;;0.00;84.20;;;;;;5075874;28;20567;-90
2023/11/28 10:01:25;;;;;;;13.40;12.40;;;0.00;83.80;;;;;;5076800;28;20173;-91
2023/11/28 10:03:52;;;;;;;14.43;13.33;;;0.00;81.90;;;;;;5076188;28;20264;-92
2023/11/28 10:06:24;;;;;;;13.03;12.13;;;-0.10;81.30;;;;;;5076290;28;20198;-90
2023/11/28 10:08:58;;;;;;;14.57;13.17;;;0.00;82.60;;;;;;5075902;28;20243;-91
2023/11/28 10:11:28;;;;;;;13.63;12.63;;;0.00;82.60;;;;;;5078236;28;20165;-87
2023/11/28 10:13:53;;;;;;;14.73;13.73;;;0.00;81.40;;;;;;5075858;28;20275;-88
2023/11/28 10:16:43;;;;;;;13.73;12.73;;;0.00;81.20;;;;;;5093945;28;20634;-90
2023/11/28 10:19:12;;;;;;;20.97;19.57;;;0.00;82.10;;;;;;5078483;28;20196;-92
2023/11/28 10:21:39;;;;;;;21.73;20.33;;;0.00;82.70;;;;;;5076373;28;20200;-91
2023/11/28 10:24:07;;;;;;;23.33;21.33;;;0.00;82.80;;;;;;5075245;28;20673;-90
2023/11/28 10:26:33;;;;;;;22.47;21.07;;;0.00;82.90;;;;;;5075198;28;20185;-91
2023/11/28 10:29:00;;;;;;;22.17;20.47;;;0.00;82.80;;;;;;5075444;28;20200;-90
2023/11/28 10:31:26;;;;;;;24.50;22.80;;;0.00;82.90;;;;;;5075497;28;20184;-90
2023/11/28 10:33:51;;;;;;;24.67;22.97;;;0.00;82.50;;;;;;5076105;28;20559;-90
2023/11/28 10:36:17;;;;;;;23.40;21.90;;;0.00;82.30;;;;;;5076386;28;20229;-88
2023/11/28 10:43:53;;;;;;;14.33;13.13;;;0.00;82.00;;;;;;4374196;22;20331;-88
2023/11/28 10:46:19;;;;;;;24.93;22.63;;;0.00;82.10;;;;;;5012965;28;20329;-89
2023/11/28 10:48:46;;;;;;;21.57;20.07;;;0.10;82.30;;;;;;5019870;28;20284;-90
2023/11/28 10:51:14;;;;;;;14.40;13.27;;;0.00;82.10;;;;;;5012037;28;20270;-90
2023/11/28 10:53:46;;;;;;;15.23;13.50;;;0.00;81.60;;;;;;5012052;28;20199;-90
2023/11/28 10:56:20;;;;;;;22.47;20.77;;;0.00;81.90;;;;;;5012710;28;20195;-90
2023/11/28 10:58:56;;;;;;;23.97;22.30;;;0.00;81.60;;;;;;5016620;28;20189;-89
2023/11/28 11:01:22;;;;;;;20.67;19.13;;;0.10;81.00;;;;;;5017040;28;20180;-88
2023/11/28 11:03:48;;;;;;;15.57;14.47;;;0.10;80.70;;;;;;5016687;28;20184;-90
2023/11/28 11:06:14;;;;;;;15.87;14.67;;;0.10;80.10;;;;;;5016071;28;20176;-90
2023/11/28 11:08:41;;;;;;;21.00;19.43;;;0.10;79.70;;;;;;5016201;28;20286;-85
2023/11/28 11:11:07;;;;;;;24.37;22.43;;;0.00;79.60;;;;;;5017201;28;20177;-85
2023/11/28 11:14:01;;;;;;;23.73;22.03;;;0.10;79.80;;;;;;5015708;28;20204;-85
2023/11/28 11:16:39;;;;;;;15.67;14.53;;;0.10;80.70;;;;;;5015616;28;20655;-85
2023/11/28 11:19:05;;;;;;;16.03;14.80;;;0.10;80.40;;;;;;5017353;28;20189;-85
2023/11/28 11:21:39;;;;;;;24.60;22.70;;;0.10;79.70;;;;;;5017075;28;20172;-85
2023/11/28 11:24:05;;;;;;;27.90;26.10;;;0.10;80.00;;;;;;5017104;28;20178;-85
2023/11/28 11:26:36;;;;;;;27.17;25.27;;;0.20;80.00;;;;;;5015508;28;20179;-85
2023/11/28 11:29:04;;;;;;;17.40;16.10;;;0.10;80.00;;;;;;5016823;28;20209;-85
2023/11/28 11:31:29;;;;;;;17.57;16.27;;;0.10;79.40;;;;;;5015573;28;20184;-86
2023/11/28 11:33:55;;;;;;;27.43;25.47;;;0.10;79.80;;;;;;5015496;28;20727;-85
2023/11/28 11:36:20;;;;;;;29.93;27.73;;;0.10;78.60;;;;;;5015628;28;20208;-85
2023/11/28 11:38:49;;;;;;;29.87;27.87;;;0.10;78.10;;;;;;5016497;28;20194;-85
2023/11/28 11:41:16;;;;;;;18.53;16.70;;;0.00;77.30;;;;;;5015428;28;20182;-85
2023/11/28 11:43:44;;;;;;;17.50;16.27;;;0.10;78.20;;;;;;5015159;28;20283;-85
2023/11/28 11:46:18;;;;;;;26.67;24.93;;;0.10;78.80;;;;;;5017877;28;20259;-85
2023/11/28 11:48:44;;;;;;;19.00;17.70;;;0.10;78.50;;;;;;5015198;28;20197;-86
2023/11/28 11:51:10;;;;;;;19.10;17.70;;;0.10;78.10;;;;;;5015181;28;20660;-85
2023/11/28 11:53:41;;;;;;;17.27;15.87;;;0.10;78.10;;;;;;5016467;28;20192;-86
2023/11/28 11:56:08;;;;;;;17.07;15.67;;;0.20;78.30;;;;;;5015043;28;20181;-85
2023/11/28 11:58:33;;;;;;;19.73;18.23;;;0.20;78.30;;;;;;5016412;28;20191;-85
2023/11/28 12:01:00;;;;;;;20.17;18.63;;;0.30;78.20;;;;;;5014937;28;20172;-85
2023/11/28 12:03:26;;;;;;;20.37;18.83;;;0.30;77.80;;;;;;5015400;28;20191;-87
2023/11/28 12:06:01;;;;;;;18.97;17.20;;;0.20;78.00;;;;;;5016444;28;20172;-90
2023/11/28 12:08:27;;;;;;;19.23;17.50;;;0.30;77.20;;;;;;5016369;28;20694;-85
2023/11/28 12:11:09;;;;;;;20.83;19.43;;;0.20;76.90;;;;;;5016244;28;20197;-85
2023/11/28 12:13:36;;;;;;;21.87;19.97;;;0.30;77.40;;;;;;5015852;28;20200;-85
2023/11/28 12:16:04;;;;;;;20.20;18.70;;;0.30;77.30;;;;;;5016200;28;20547;-85
2023/11/28 12:18:30;;;;;;;18.40;17.10;;;0.30;77.10;;;;;;5016125;28;20211;-85
2023/11/28 12:20:57;;;;;;;19.73;17.93;;;0.30;77.30;;;;;;5014689;28;20177;-85
2023/11/28 12:23:22;;;;;;;19.03;17.63;;;0.30;77.00;;;;;;5015719;28;20181;-85
2023/11/28 12:25:48;;;;;;;18.43;16.77;;;0.30;77.00;;;;;;5014891;28;20719;-86
2023/11/28 12:28:13;;;;;;;19.80;18.40;;;0.20;77.50;;;;;;5014433;28;20205;-85
2023/11/28 12:30:39;;;;;;;18.77;17.50;;;0.20;77.00;;;;;;5014461;28;20188;-87
2023/11/28 12:33:05;;;;;;;18.97;17.53;;;0.30;77.30;;;;;;5014338;28;20212;-85
2023/11/28 12:35:30;;;;;;;17.83;16.63;;;0.30;77.10;;;;;;5014376;28;20629;-86
2023/11/28 12:37:57;;;;;;;18.23;16.93;;;0.30;76.50;;;;;;5015503;28;20267;-85
2023/11/28 12:40:23;;;;;;;18.90;17.60;;;0.30;76.00;;;;;;5014329;28;20180;-85
2023/11/28 12:42:49;;;;;;;20.77;19.37;;;0.10;75.70;;;;;;5015700;28;20177;-85
2023/11/28 12:45:18;;;;;;;33.23;30.33;;;0.10;76.80;;;;;;5014256;28;20177;-86